Time;durP1;ratioP1;P1;durP2;ratioP2;P2;SDS_P1;SDS_P2;PMS_P1;PMS_P2;Temp;Humidity;BMP_temperature;BMP_pressure;BME280_temperature;BME280_humidity;BME280_pressure;Samples;Min_cycle;Max_cycle;Signal;HPM_P1;HPM_P2
2021/08/03 00:02:17;;;;;;;;;;;14.20;99.90;;;;;;1910350;75;20233;-77
2021/08/03 00:04:46;;;;;;;;;;;14.20;99.90;;;;;;1889115;75;20173;-78
2021/08/03 00:07:14;;;;;;;;;;;14.20;99.90;;;;;;1886886;75;20189;-77
2021/08/03 00:09:42;;;;;;;;;;;14.10;99.90;;;;;;1910127;75;20497;-77
2021/08/03 00:12:10;;;;;;;;;;;14.20;99.90;;;;;;1914841;75;20256;-77
2021/08/03 00:14:38;;;;;;;;;;;14.30;99.90;;;;;;1898055;75;20187;-78
2021/08/03 00:17:05;;;;;;;;;;;14.30;99.90;;;;;;1885445;75;20155;-78
2021/08/03 00:19:32;;;;;;;;;;;14.30;99.90;;;;;;1892517;75;20155;-78
2021/08/03 00:21:59;;;;;;;;;;;14.40;99.90;;;;;;1883302;76;20453;-78
2021/08/03 00:24:26;;;;;;;;;;;14.40;99.90;;;;;;1885098;75;20211;-78
2021/08/03 00:26:53;;;;;;;;;;;14.70;99.90;;;;;;1917825;75;20150;-78
2021/08/03 00:29:20;;;;;;;;;;;14.60;99.90;;;;;;1908294;75;20106;-78
2021/08/03 00:31:48;;;;;;;;;;;14.50;99.90;;;;;;1886413;75;20600;-78
2021/08/03 00:34:15;;;;;;;;;;;14.40;99.90;;;;;;1881782;76;20206;-79
2021/08/03 00:36:42;;;;;;;;;;;14.40;99.90;;;;;;1881538;76;20191;-79
2021/08/03 00:39:09;;;;;;;;;;;14.60;99.90;;;;;;1898439;75;20849;-78
2021/08/03 00:41:40;;;;;;;;;;;14.70;99.90;;;;;;1896426;75;20426;-79
2021/08/03 00:44:07;;;;;;;;;;;14.60;99.90;;;;;;1904654;75;20241;-79
2021/08/03 00:46:34;;;;;;;;;;;14.40;99.90;;;;;;1884318;75;20167;-78
2021/08/03 00:49:01;;;;;;;;;;;14.30;99.90;;;;;;1886560;75;20491;-79
2021/08/03 00:51:28;;;;;;;;;;;14.30;99.90;;;;;;1910882;75;20127;-78
2021/08/03 00:53:55;;;;;;;;;;;14.40;99.90;;;;;;1917154;75;20202;-79
2021/08/03 00:56:22;;;;;;;;;;;14.20;99.90;;;;;;1908246;74;20109;-78
2021/08/03 00:58:49;;;;;;;;;;;14.20;99.90;;;;;;1909813;75;20934;-77
2021/08/03 01:01:16;;;;;;;;;;;14.20;99.90;;;;;;1917742;75;20267;-78
2021/08/03 01:03:42;;;;;;;;;;;14.10;99.90;;;;;;1894233;75;20142;-77
2021/08/03 01:06:11;;;;;;;;;;;14.10;99.90;;;;;;1882691;76;20454;-79
2021/08/03 01:08:42;;;;;;;;;;;14.00;99.90;;;;;;1894623;75;20232;-80
2021/08/03 01:11:13;;;;;;;;;;;13.90;99.90;;;;;;1883923;76;20198;-78
2021/08/03 01:13:41;;;;;;;;;;;13.80;99.90;;;;;;1896129;75;20491;-80
2021/08/03 01:16:27;;;;;;;;;;;14.00;99.90;;;;;;1885664;76;20187;-78
2021/08/03 01:19:13;;;;;;;;;;;14.00;99.90;;;;;;1882497;76;20153;-79
2021/08/03 01:21:44;;;;;;;;;;;13.80;99.90;;;;;;1882998;75;20201;-78
2021/08/03 01:24:18;;;;;;;;;;;13.90;99.90;;;;;;1882241;76;20162;-78
2021/08/03 01:26:58;;;;;;;;;;;13.90;99.90;;;;;;1896305;75;20138;-77
2021/08/03 01:29:26;;;;;;;;;;;13.90;99.90;;;;;;1880457;76;20181;-77
2021/08/03 01:31:55;;;;;;;;;;;13.70;99.90;;;;;;1881140;75;20173;-77
2021/08/03 01:34:23;;;;;;;;;;;13.70;99.90;;;;;;1883314;76;20173;-78
2021/08/03 01:36:57;;;;;;;;;;;13.70;99.90;;;;;;1880459;75;20897;-77
2021/08/03 01:42:13;;;;;;;;;;;13.70;99.90;;;;;;1863224;75;20243;-78
2021/08/03 01:44:42;;;;;;;;;;;13.70;99.90;;;;;;1838144;75;20197;-79
2021/08/03 01:47:09;;;;;;;;;;;13.70;99.90;;;;;;1847308;77;20589;-79
2021/08/03 01:49:37;;;;;;;;;;;13.60;99.90;;;;;;1867988;77;20192;-79
2021/08/03 01:52:05;;;;;;;;;;;13.70;99.90;;;;;;1871958;77;20153;-77
2021/08/03 01:54:33;;;;;;;;;;;13.80;99.90;;;;;;1869603;77;20191;-77
2021/08/03 01:57:00;;;;;;;;;;;13.80;99.90;;;;;;1870262;77;20105;-77
2021/08/03 01:59:28;;;;;;;;;;;13.70;99.90;;;;;;1865231;75;20139;-77
2021/08/03 02:01:55;;;;;;;;;;;13.60;99.90;;;;;;1859992;75;20128;-77
2021/08/03 02:04:22;;;;;;;;;;;13.50;99.90;;;;;;1867859;75;20121;-77
2021/08/03 02:06:49;;;;;;;;;;;13.40;99.90;;;;;;1871888;76;20121;-77
2021/08/03 02:09:17;;;;;;;;;;;13.30;99.90;;;;;;1865249;75;20174;-78
2021/08/03 02:11:45;;;;;;;;;;;13.40;99.90;;;;;;1859517;75;20852;-78
2021/08/03 02:14:12;;;;;;;;;;;13.40;99.90;;;;;;1870896;75;20164;-78
2021/08/03 02:16:39;;;;;;;;;;;13.30;99.90;;;;;;1870152;77;20160;-77
2021/08/03 02:19:05;;;;;;;;;;;13.40;99.90;;;;;;1867102;75;20192;-77
2021/08/03 02:21:32;;;;;;;;;;;13.40;99.90;;;;;;1867669;75;20164;-77
2021/08/03 02:23:59;;;;;;;;;;;13.30;99.90;;;;;;1834710;77;20119;-77
2021/08/03 02:26:26;;;;;;;;;;;13.40;99.90;;;;;;1859198;75;20200;-77
2021/08/03 02:28:53;;;;;;;;;;;13.50;99.90;;;;;;1867963;75;20176;-78
2021/08/03 02:31:24;;;;;;;;;;;13.60;99.90;;;;;;1868954;77;20198;-79
2021/08/03 02:33:56;;;;;;;;;;;13.40;99.90;;;;;;1868377;75;20105;-79
2021/08/03 02:36:24;;;;;;;;;;;13.30;99.90;;;;;;1867395;75;20176;-78
2021/08/03 02:38:52;;;;;;;;;;;13.30;99.90;;;;;;1857381;75;20239;-78
2021/08/03 02:41:20;;;;;;;;;;;13.50;99.90;;;;;;1860796;75;20164;-77
2021/08/03 02:43:48;;;;;;;;;;;13.30;99.90;;;;;;1853009;77;20180;-77
2021/08/03 02:46:16;;;;;;;;;;;13.20;99.90;;;;;;1868504;75;20390;-77
2021/08/03 02:48:52;;;;;;;;;;;13.20;99.90;;;;;;1864752;75;20156;-77
2021/08/03 02:51:12;;;;;;;;;;;13.30;99.90;;;;;;1867159;76;20156;-77
2021/08/03 02:53:41;;;;;;;;;;;13.40;99.90;;;;;;1863505;75;20611;-77
2021/08/03 02:56:09;;;;;;;;;;;13.30;99.90;;;;;;1855295;77;20269;-77
2021/08/03 02:58:38;;;;;;;;;;;13.20;99.90;;;;;;1864994;75;20149;-77
2021/08/03 03:01:06;;;;;;;;;;;13.20;99.90;;;;;;1863952;75;20172;-77
2021/08/03 03:03:34;;;;;;;;;;;13.20;99.90;;;;;;1857405;75;20203;-77
2021/08/03 03:06:02;;;;;;;;;;;13.30;99.90;;;;;;1849487;75;20312;-77
2021/08/03 03:08:30;;;;;;;;;;;13.30;99.90;;;;;;1862038;75;20180;-77
2021/08/03 03:10:59;;;;;;;;;;;13.20;99.90;;;;;;1867936;77;20231;-77
2021/08/03 03:13:31;;;;;;;;;;;13.20;99.90;;;;;;1868399;75;20481;-77
2021/08/03 03:15:58;;;;;;;;;;;13.20;99.90;;;;;;1858389;75;20193;-77
2021/08/03 03:18:25;;;;;;;;;;;13.10;99.90;;;;;;1867801;77;20187;-76
2021/08/03 03:20:52;;;;;;;;;;;13.10;99.90;;;;;;1865472;75;20221;-76
2021/08/03 03:23:22;;;;;;;;;;;13.20;99.90;;;;;;1868782;77;20206;-77
2021/08/03 03:25:50;;;;;;;;;;;13.20;99.90;;;;;;1868036;75;20122;-77
2021/08/03 03:28:19;;;;;;;;;;;13.10;99.90;;;;;;1865817;75;20160;-78
2021/08/03 03:30:46;;;;;;;;;;;13.10;99.90;;;;;;1853608;75;20188;-78
2021/08/03 03:33:13;;;;;;;;;;;13.20;99.90;;;;;;1860005;77;20207;-79
2021/08/03 03:35:40;;;;;;;;;;;13.20;99.90;;;;;;1867083;75;20186;-77
2021/08/03 03:38:08;;;;;;;;;;;13.30;99.90;;;;;;1865535;75;20202;-78
2021/08/03 03:40:35;;;;;;;;;;;13.20;99.90;;;;;;1859577;75;20217;-78
2021/08/03 03:43:02;;;;;;;;;;;13.30;99.90;;;;;;1866656;75;20171;-78
2021/08/03 03:45:30;;;;;;;;;;;13.20;99.90;;;;;;1844436;75;20530;-78
2021/08/03 03:48:01;;;;;;;;;;;13.20;99.90;;;;;;1846175;75;20532;-79
2021/08/03 03:50:38;;;;;;;;;;;13.20;99.90;;;;;;1868591;77;20503;-77
2021/08/03 03:53:09;;;;;;;;;;;13.10;99.90;;;;;;1844679;75;20186;-79
2021/08/03 03:55:36;;;;;;;;;;;13.00;99.90;;;;;;1857710;77;20209;-78
2021/08/03 03:58:03;;;;;;;;;;;13.20;99.90;;;;;;1846816;75;20156;-78
2021/08/03 04:00:31;;;;;;;;;;;13.20;99.90;;;;;;1866589;75;20196;-80
2021/08/03 04:02:59;;;;;;;;;;;13.10;99.90;;;;;;1863193;75;20213;-78
2021/08/03 04:05:27;;;;;;;;;;;13.20;99.90;;;;;;1864142;77;20453;-78
2021/08/03 04:07:53;;;;;;;;;;;13.20;99.90;;;;;;1864718;75;20176;-79
2021/08/03 04:10:22;;;;;;;;;;;13.00;99.90;;;;;;1868357;75;20199;-78
2021/08/03 04:12:49;;;;;;;;;;;13.00;99.90;;;;;;1855669;77;20180;-78
2021/08/03 04:15:15;;;;;;;;;;;13.00;99.90;;;;;;1846086;75;20172;-78
2021/08/03 04:17:42;;;;;;;;;;;13.20;99.90;;;;;;1863290;75;20183;-78
2021/08/03 04:20:10;;;;;;;;;;;13.20;99.90;;;;;;1868207;75;20540;-78
2021/08/03 04:22:36;;;;;;;;;;;13.30;99.90;;;;;;1842399;77;20170;-78
2021/08/03 04:25:03;;;;;;;;;;;13.20;99.90;;;;;;1858409;75;20226;-78
2021/08/03 04:27:31;;;;;;;;;;;13.30;99.90;;;;;;1852689;77;20172;-79
2021/08/03 04:29:58;;;;;;;;;;;13.40;99.90;;;;;;1868339;75;20491;-78
2021/08/03 04:32:24;;;;;;;;;;;13.50;99.90;;;;;;1860061;75;20208;-78
2021/08/03 04:34:51;;;;;;;;;;;13.50;99.90;;;;;;1864280;75;20160;-78
2021/08/03 04:37:18;;;;;;;;;;;13.40;99.90;;;;;;1866947;75;20469;-77
2021/08/03 04:39:45;;;;;;;;;;;13.50;99.90;;;;;;1863543;75;20147;-78
2021/08/03 04:42:12;;;;;;;;;;;13.40;99.90;;;;;;1867163;75;20888;-77
2021/08/03 04:44:38;;;;;;;;;;;13.40;99.90;;;;;;1866559;75;20183;-78
2021/08/03 04:47:05;;;;;;;;;;;13.50;99.90;;;;;;1858824;75;20406;-79
2021/08/03 04:49:32;;;;;;;;;;;13.50;99.90;;;;;;1863117;75;20326;-78
2021/08/03 04:51:59;;;;;;;;;;;13.50;99.90;;;;;;1854166;75;20171;-78
2021/08/03 04:54:26;;;;;;;;;;;13.50;99.90;;;;;;1863835;75;20168;-78
2021/08/03 04:56:53;;;;;;;;;;;13.60;99.90;;;;;;1844157;77;20143;-80
2021/08/03 04:59:20;;;;;;;;;;;13.60;99.90;;;;;;1850401;75;20176;-79
2021/08/03 05:02:06;;;;;;;;;;;13.70;99.90;;;;;;1866197;75;20160;-78
2021/08/03 05:04:34;;;;;;;;;;;13.80;99.90;;;;;;1925941;74;20163;-78
2021/08/03 05:07:01;;;;;;;;;;;13.80;99.90;;;;;;1931492;74;20194;-79
2021/08/03 05:09:28;;;;;;;;;;;13.70;99.90;;;;;;1911901;74;20154;-79
2021/08/03 05:11:55;;;;;;;;;;;13.70;99.90;;;;;;1929479;74;20213;-78
2021/08/03 05:14:22;;;;;;;;;;;13.80;99.90;;;;;;1929862;74;20165;-78
2021/08/03 05:16:49;;;;;;;;;;;13.80;99.90;;;;;;1915130;74;20191;-79
2021/08/03 05:19:15;;;;;;;;;;;13.80;99.90;;;;;;1933815;74;20213;-79
2021/08/03 05:21:42;;;;;;;;;;;13.80;99.90;;;;;;1915904;74;20199;-79
2021/08/03 05:24:09;;;;;;;;;;;13.90;99.90;;;;;;1902443;74;20246;-78
2021/08/03 05:26:36;;;;;;;;;;;13.90;99.90;;;;;;1904727;74;20228;-79
2021/08/03 05:29:03;;;;;;;;;;;14.00;99.90;;;;;;1921129;74;20262;-78
2021/08/03 05:31:29;;;;;;;;;;;14.10;99.90;;;;;;1921029;74;20197;-77
2021/08/03 05:33:56;;;;;;;;;;;14.30;99.90;;;;;;1895519;74;20165;-78
2021/08/03 05:36:23;;;;;;;;;;;14.30;99.90;;;;;;1912768;74;20158;-79
2021/08/03 05:38:50;;;;;;;;;;;14.30;99.90;;;;;;1911178;74;20154;-77
2021/08/03 05:41:17;;;;;;;;;;;14.30;99.90;;;;;;1898083;74;20103;-77
2021/08/03 05:43:43;;;;;;;;;;;14.30;99.90;;;;;;1911879;74;20403;-79
2021/08/03 05:46:10;;;;;;;;;;;14.40;99.90;;;;;;1898345;74;20158;-76
2021/08/03 05:48:37;;;;;;;;;;;14.40;99.90;;;;;;1931754;74;20587;-79
2021/08/03 05:51:04;;;;;;;;;;;14.50;99.90;;;;;;1924831;74;20211;-77
2021/08/03 05:53:31;;;;;;;;;;;14.50;99.90;;;;;;1908731;74;20177;-77
2021/08/03 05:55:57;;;;;;;;;;;14.60;99.90;;;;;;1895008;74;20173;-78
2021/08/03 05:58:24;;;;;;;;;;;14.70;99.90;;;;;;1902243;74;20134;-77
2021/08/03 06:00:51;;;;;;;;;;;14.70;99.90;;;;;;1908211;74;20300;-78
2021/08/03 06:03:18;;;;;;;;;;;14.70;99.90;;;;;;1913497;74;20154;-77
2021/08/03 06:05:45;;;;;;;;;;;14.80;99.90;;;;;;1906577;74;20122;-77
2021/08/03 06:08:14;;;;;;;;;;;14.90;99.90;;;;;;1909310;74;20157;-77
2021/08/03 06:10:41;;;;;;;;;;;14.90;99.90;;;;;;1907077;74;20140;-79
2021/08/03 06:13:10;;;;;;;;;;;15.00;99.90;;;;;;1936323;74;20147;-78
2021/08/03 06:15:40;;;;;;;;;;;15.10;99.90;;;;;;1921468;74;20147;-78
2021/08/03 06:18:14;;;;;;;;;;;15.10;99.90;;;;;;1932870;74;20206;-78
2021/08/03 06:20:41;;;;;;;;;;;15.10;99.90;;;;;;1902912;74;20233;-77
2021/08/03 06:23:12;;;;;;;;;;;15.20;99.90;;;;;;1906286;74;20176;-83
2021/08/03 06:25:40;;;;;;;;;;;15.10;99.90;;;;;;1900345;74;20161;-78
2021/08/03 06:28:08;;;;;;;;;;;15.20;99.90;;;;;;1908186;74;20176;-81
2021/08/03 06:30:38;;;;;;;;;;;15.20;99.90;;;;;;1887602;74;20180;-79
2021/08/03 06:33:06;;;;;;;;;;;15.30;99.90;;;;;;1921030;74;20167;-79
2021/08/03 06:35:33;;;;;;;;;;;15.40;99.90;;;;;;1919640;74;20126;-78
2021/08/03 06:38:00;;;;;;;;;;;15.40;99.90;;;;;;1891949;74;20177;-79
2021/08/03 06:40:28;;;;;;;;;;;15.40;99.90;;;;;;1894039;74;20194;-79
2021/08/03 06:42:57;;;;;;;;;;;15.40;99.90;;;;;;1917595;74;20116;-81
2021/08/03 06:45:25;;;;;;;;;;;15.40;99.90;;;;;;1900581;74;20150;-80
2021/08/03 06:48:02;;;;;;;;;;;15.50;99.90;;;;;;1914295;74;20258;-77
2021/08/03 06:50:31;;;;;;;;;;;15.60;99.90;;;;;;1883013;76;20166;-77
2021/08/03 06:52:59;;;;;;;;;;;15.60;99.90;;;;;;1890598;74;20675;-79
2021/08/03 06:55:28;;;;;;;;;;;15.70;99.90;;;;;;1906301;74;20223;-79
2021/08/03 06:57:55;;;;;;;;;;;15.70;99.90;;;;;;1882043;76;20465;-79
2021/08/03 07:00:24;;;;;;;;;;;15.80;99.90;;;;;;1893694;74;20501;-77
2021/08/03 07:02:52;;;;;;;;;;;15.80;99.90;;;;;;1913188;74;20167;-79
2021/08/03 07:05:20;;;;;;;;;;;15.80;99.90;;;;;;1902201;74;20225;-77
2021/08/03 07:07:47;;;;;;;;;;;15.90;99.90;;;;;;1906339;74;20198;-77
2021/08/03 07:10:15;;;;;;;;;;;15.90;99.90;;;;;;1893105;74;20150;-78
2021/08/03 07:12:43;;;;;;;;;;;16.00;99.90;;;;;;1897630;74;20569;-78
2021/08/03 07:15:10;;;;;;;;;;;16.00;99.90;;;;;;1913987;74;20232;-77
2021/08/03 07:17:38;;;;;;;;;;;16.10;99.90;;;;;;1914843;74;20152;-78
2021/08/03 07:20:05;;;;;;;;;;;16.10;99.90;;;;;;1919636;74;20314;-78
2021/08/03 07:22:34;;;;;;;;;;;16.20;99.90;;;;;;1904149;74;20198;-77
2021/08/03 07:25:02;;;;;;;;;;;16.30;99.90;;;;;;1902374;74;20194;-77
2021/08/03 07:27:28;;;;;;;;;;;16.30;99.90;;;;;;1914204;74;20341;-77
2021/08/03 07:29:55;;;;;;;;;;;16.30;99.90;;;;;;1896414;74;20247;-77
2021/08/03 07:32:22;;;;;;;;;;;16.30;99.90;;;;;;1903639;74;20169;-78
2021/08/03 07:34:49;;;;;;;;;;;16.40;99.90;;;;;;1908439;74;20204;-77
2021/08/03 07:37:16;;;;;;;;;;;16.40;99.90;;;;;;1898045;74;20120;-78
2021/08/03 07:39:43;;;;;;;;;;;16.30;99.90;;;;;;1920556;74;20162;-76
2021/08/03 07:42:09;;;;;;;;;;;16.30;99.90;;;;;;1902360;74;20166;-76
2021/08/03 07:44:37;;;;;;;;;;;16.30;99.90;;;;;;1899436;74;20577;-76
2021/08/03 07:47:04;;;;;;;;;;;16.30;99.90;;;;;;1897089;74;20478;-77
2021/08/03 07:49:31;;;;;;;;;;;16.40;99.90;;;;;;1897689;74;20219;-76
2021/08/03 07:51:57;;;;;;;;;;;16.50;99.90;;;;;;1902879;75;20181;-76
2021/08/03 07:54:24;;;;;;;;;;;16.50;99.90;;;;;;1923277;74;20136;-76
2021/08/03 07:56:51;;;;;;;;;;;16.60;99.90;;;;;;1899421;74;20185;-77
2021/08/03 07:59:18;;;;;;;;;;;16.60;99.90;;;;;;1884554;74;20200;-75
2021/08/03 08:01:45;;;;;;;;;;;16.70;99.90;;;;;;1895532;74;20185;-75
2021/08/03 08:04:11;;;;;;;;;;;16.70;99.90;;;;;;1908907;74;20576;-76
2021/08/03 08:06:38;;;;;;;;;;;16.70;99.90;;;;;;1911779;74;20106;-76
2021/08/03 08:09:05;;;;;;;;;;;16.70;99.90;;;;;;1919709;74;20711;-76
2021/08/03 08:11:32;;;;;;;;;;;16.70;99.90;;;;;;1895972;74;20217;-75
2021/08/03 08:13:59;;;;;;;;;;;16.70;99.90;;;;;;1911807;74;20451;-76
2021/08/03 08:16:25;;;;;;;;;;;16.80;99.90;;;;;;1898991;74;20228;-78
2021/08/03 08:18:52;;;;;;;;;;;16.80;99.90;;;;;;1934616;74;20124;-77
2021/08/03 08:21:19;;;;;;;;;;;16.80;99.90;;;;;;1897000;74;20126;-75
2021/08/03 08:23:46;;;;;;;;;;;16.80;99.90;;;;;;1904394;75;20219;-77
2021/08/03 08:26:13;;;;;;;;;;;16.90;99.90;;;;;;1905972;74;20182;-78
2021/08/03 08:28:39;;;;;;;;;;;17.00;99.90;;;;;;1907346;74;20196;-78
2021/08/03 08:31:06;;;;;;;;;;;16.90;99.90;;;;;;1901153;74;20201;-75
2021/08/03 08:33:33;;;;;;;;;;;17.00;99.90;;;;;;1888672;74;20173;-76
2021/08/03 08:36:00;;;;;;;;;;;17.00;99.90;;;;;;1908793;74;20160;-76
2021/08/03 08:38:27;;;;;;;;;;;17.20;99.90;;;;;;1900413;74;20513;-75
2021/08/03 08:40:54;;;;;;;;;;;17.10;99.90;;;;;;1909566;74;20168;-76
2021/08/03 08:43:21;;;;;;;;;;;17.10;99.90;;;;;;1918951;74;20167;-77
2021/08/03 08:45:48;;;;;;;;;;;17.10;99.90;;;;;;1900083;74;20158;-76
2021/08/03 08:48:15;;;;;;;;;;;17.10;99.90;;;;;;1914801;74;20160;-76
2021/08/03 08:50:42;;;;;;;;;;;17.00;99.90;;;;;;1935992;74;20472;-75
2021/08/03 08:53:09;;;;;;;;;;;16.90;99.90;;;;;;1899193;74;20532;-75
2021/08/03 08:55:36;;;;;;;;;;;16.90;99.90;;;;;;1919509;74;20478;-75
2021/08/03 08:58:03;;;;;;;;;;;16.90;99.90;;;;;;1904998;75;20189;-75
2021/08/03 09:00:30;;;;;;;;;;;17.00;99.90;;;;;;1933810;74;20331;-75
2021/08/03 09:02:57;;;;;;;;;;;16.90;99.90;;;;;;1916700;74;20221;-75
2021/08/03 09:05:34;;;;;;;;;;;16.90;99.90;;;;;;1891778;74;20197;-75
2021/08/03 09:08:02;;;;;;;;;;;16.90;99.90;;;;;;1891424;74;20165;-75
2021/08/03 09:10:34;;;;;;;;;;;17.00;99.90;;;;;;1904040;74;20282;-76
2021/08/03 09:13:02;;;;;;;;;;;17.10;99.90;;;;;;1887721;74;20204;-75
2021/08/03 09:15:29;;;;;;;;;;;17.20;99.90;;;;;;1938570;74;20187;-75
2021/08/03 09:18:15;;;;;;;;;;;17.30;99.90;;;;;;1926510;74;20113;-75
2021/08/03 09:20:43;;;;;;;;;;;17.30;99.90;;;;;;1903418;75;20264;-75
2021/08/03 09:23:10;;;;;;;;;;;17.50;99.90;;;;;;1885676;74;20486;-76
2021/08/03 09:25:38;;;;;;;;;;;17.80;99.90;;;;;;1938484;74;20174;-75
2021/08/03 09:28:05;;;;;;;;;;;17.80;99.90;;;;;;1928009;74;20183;-76
2021/08/03 09:30:33;;;;;;;;;;;17.90;99.90;;;;;;1933647;74;20210;-76
2021/08/03 09:33:01;;;;;;;;;;;18.00;99.90;;;;;;1936775;74;20163;-76
2021/08/03 09:35:29;;;;;;;;;;;18.10;99.90;;;;;;1918995;74;20162;-75
2021/08/03 09:37:57;;;;;;;;;;;18.20;99.90;;;;;;1891986;74;20165;-76
2021/08/03 09:40:25;;;;;;;;;;;18.00;99.90;;;;;;1930751;74;20139;-76
2021/08/03 09:42:59;;;;;;;;;;;17.80;99.90;;;;;;1935260;74;20124;-76
2021/08/03 09:45:26;;;;;;;;;;;17.70;99.90;;;;;;1913315;74;20402;-75
2021/08/03 11:05:32;;;;;;;;;;;18.40;99.90;;;;;;1817459;77;20127;-80
2021/08/03 11:08:01;;;;;;;;;;;18.30;99.90;;;;;;1817418;77;20115;-79
2021/08/03 11:10:29;;;;;;;;;;;18.20;99.90;;;;;;1776680;79;20127;-80
2021/08/03 11:12:56;;;;;;;;;;;18.20;99.90;;;;;;1759276;80;20153;-80
2021/08/03 11:15:25;;;;;;;;;;;18.20;99.90;;;;;;1756445;80;20159;-81
2021/08/03 11:18:01;;;;;;;;;;;18.40;99.90;;;;;;1766129;80;20162;-80
2021/08/03 11:20:35;;;;;;;;;;;18.70;99.90;;;;;;1767441;79;20162;-80
2021/08/03 11:23:15;;;;;;;;;;;19.00;99.90;;;;;;1762872;79;20482;-80
2021/08/03 11:25:43;;;;;;;;;;;19.20;99.90;;;;;;1776077;81;20562;-80
2021/08/03 11:28:11;;;;;;;;;;;19.40;99.90;;;;;;1770381;80;20130;-80
2021/08/03 11:30:41;;;;;;;;;;;19.40;99.90;;;;;;1782283;79;20162;-80
2021/08/03 11:33:08;;;;;;;;;;;19.60;99.90;;;;;;1779512;80;20149;-80
2021/08/03 11:35:35;;;;;;;;;;;19.60;99.90;;;;;;1750252;81;20189;-77
2021/08/03 11:38:03;;;;;;;;;;;19.60;99.90;;;;;;1765030;80;20167;-78
2021/08/03 11:40:30;;;;;;;;;;;19.70;99.90;;;;;;1752455;81;20567;-78
2021/08/03 11:42:58;;;;;;;;;;;19.90;99.90;;;;;;1756069;79;20263;-77
2021/08/03 11:45:26;;;;;;;;;;;20.00;99.90;;;;;;1764821;79;20201;-77
2021/08/03 11:47:57;;;;;;;;;;;20.00;99.90;;;;;;1766098;79;20237;-79
2021/08/03 11:50:32;;;;;;;;;;;20.00;99.90;;;;;;1754908;81;20158;-78
2021/08/03 11:53:15;;;;;;;;;;;20.00;99.90;;;;;;1777475;79;20159;-77
2021/08/03 11:55:43;;;;;;;;;;;20.10;99.90;;;;;;1771002;80;20177;-77
2021/08/03 11:58:10;;;;;;;;;;;20.20;99.90;;;;;;1767879;80;20474;-77
2021/08/03 12:00:38;;;;;;;;;;;20.30;99.90;;;;;;1761849;81;20518;-78
2021/08/03 12:03:05;;;;;;;;;;;20.20;99.90;;;;;;1770247;79;20174;-77
2021/08/03 12:05:33;;;;;;;;;;;20.10;99.90;;;;;;1767933;79;20233;-75
2021/08/03 12:08:04;;;;;;;;;;;20.00;99.90;;;;;;1754884;79;20168;-76
2021/08/03 12:10:33;;;;;;;;;;;20.10;99.90;;;;;;1771333;79;20155;-76
2021/08/03 12:13:00;;;;;;;;;;;20.40;99.90;;;;;;1772995;80;20687;-76
2021/08/03 12:15:27;;;;;;;;;;;20.40;99.90;;;;;;1766329;80;20158;-76
2021/08/03 12:18:04;;;;;;;;;;;20.50;99.90;;;;;;1748269;79;20147;-76
2021/08/03 12:20:39;;;;;;;;;;;20.50;99.90;;;;;;1771811;80;20134;-76
2021/08/03 12:23:12;;;;;;;;;;;20.40;99.90;;;;;;1771694;79;20126;-76
2021/08/03 12:25:47;;;;;;;;;;;20.40;99.90;;;;;;1771389;80;20126;-76
2021/08/03 12:28:15;;;;;;;;;;;20.20;99.90;;;;;;1770190;81;20115;-77
2021/08/03 12:30:42;;;;;;;;;;;20.00;99.90;;;;;;1763599;80;20149;-76
2021/08/03 12:33:10;;;;;;;;;;;19.90;99.90;;;;;;1757801;80;20169;-77
2021/08/03 12:35:39;;;;;;;;;;;19.70;99.90;;;;;;1767720;81;20132;-77
2021/08/03 12:38:15;;;;;;;;;;;19.70;99.90;;;;;;1774831;81;20225;-80
2021/08/03 12:40:42;;;;;;;;;;;19.60;99.90;;;;;;1780048;79;20435;-78
2021/08/03 12:43:09;;;;;;;;;;;19.50;99.90;;;;;;1771122;80;20138;-78
2021/08/03 12:45:38;;;;;;;;;;;19.50;99.90;;;;;;1771412;81;20165;-79
2021/08/03 12:48:06;;;;;;;;;;;19.40;99.90;;;;;;1771831;80;20134;-78
2021/08/03 12:50:34;;;;;;;;;;;19.30;99.90;;;;;;1761948;80;20139;-78
2021/08/03 12:53:02;;;;;;;;;;;19.30;99.90;;;;;;1762585;80;20126;-79
2021/08/03 12:55:33;;;;;;;;;;;19.30;99.90;;;;;;1770410;81;20209;-78
2021/08/03 12:57:59;;;;;;;;;;;19.20;99.90;;;;;;1770503;79;20221;-79
2021/08/03 13:00:30;;;;;;;;;;;19.30;99.90;;;;;;1767384;79;20192;-81
2021/08/03 13:02:58;;;;;;;;;;;19.20;99.90;;;;;;1767159;80;20535;-79
2021/08/03 13:05:25;;;;;;;;;;;19.10;99.90;;;;;;1768681;80;20465;-79
2021/08/03 13:07:52;;;;;;;;;;;19.20;99.90;;;;;;1769422;79;20181;-79
2021/08/03 13:10:18;;;;;;;;;;;19.20;99.90;;;;;;1771644;79;20178;-79
2021/08/03 13:12:45;;;;;;;;;;;19.10;99.90;;;;;;1771101;79;20166;-78
2021/08/03 13:15:13;;;;;;;;;;;19.10;99.90;;;;;;1765817;80;20606;-77
2021/08/03 13:17:39;;;;;;;;;;;19.00;99.90;;;;;;1770331;81;20407;-79
2021/08/03 13:20:07;;;;;;;;;;;19.00;99.90;;;;;;1743237;82;20183;-77
2021/08/03 13:22:35;;;;;;;;;;;18.90;99.90;;;;;;1763473;79;20163;-79
2021/08/03 13:25:02;;;;;;;;;;;18.90;99.90;;;;;;1777148;80;20221;-80
2021/08/03 13:27:29;;;;;;;;;;;18.90;99.90;;;;;;1747280;80;20213;-79
2021/08/03 13:29:56;;;;;;;;;;;18.90;99.90;;;;;;1780023;79;20132;-80
2021/08/03 13:32:22;;;;;;;;;;;18.90;99.90;;;;;;1781154;79;20198;-78
2021/08/03 13:34:49;;;;;;;;;;;18.90;99.90;;;;;;1766394;79;20162;-79
2021/08/03 13:37:19;;;;;;;;;;;18.90;99.90;;;;;;1765173;79;20158;-80
2021/08/03 13:39:44;;;;;;;;;;;18.90;99.90;;;;;;1743340;81;20172;-77
2021/08/03 13:42:11;;;;;;;;;;;18.90;99.90;;;;;;1749018;80;20498;-80
2021/08/03 13:44:38;;;;;;;;;;;18.90;99.90;;;;;;1770997;79;20208;-80
2021/08/03 13:47:05;;;;;;;;;;;18.90;99.90;;;;;;1770168;80;20459;-79
2021/08/03 13:49:32;;;;;;;;;;;18.90;99.90;;;;;;1777958;79;20179;-81
2021/08/03 13:51:58;;;;;;;;;;;18.90;99.90;;;;;;1779026;80;20202;-80
2021/08/03 13:54:25;;;;;;;;;;;18.90;99.90;;;;;;1770975;79;20502;-79
2021/08/03 13:56:52;;;;;;;;;;;18.90;99.90;;;;;;1771234;79;20182;-81
2021/08/03 13:59:19;;;;;;;;;;;18.80;99.90;;;;;;1776208;79;20432;-80
2021/08/03 14:01:46;;;;;;;;;;;18.80;99.90;;;;;;1767274;79;20236;-80
2021/08/03 14:04:13;;;;;;;;;;;18.80;99.90;;;;;;1776124;79;20522;-79
2021/08/03 14:06:40;;;;;;;;;;;18.80;99.90;;;;;;1763481;80;20221;-80
2021/08/03 14:09:07;;;;;;;;;;;18.80;99.90;;;;;;1772922;80;20230;-80
2021/08/03 14:11:34;;;;;;;;;;;18.80;99.90;;;;;;1785145;80;20126;-79
2021/08/03 14:14:02;;;;;;;;;;;18.80;99.90;;;;;;1778932;79;20558;-78
2021/08/03 14:16:29;;;;;;;;;;;18.80;99.90;;;;;;1757801;79;20178;-78
2021/08/03 14:18:56;;;;;;;;;;;18.80;99.90;;;;;;1776036;79;20214;-80
2021/08/03 14:21:23;;;;;;;;;;;18.80;99.90;;;;;;1769163;80;20222;-79
2021/08/03 14:23:49;;;;;;;;;;;18.80;99.90;;;;;;1771622;79;20492;-80
2021/08/03 14:26:17;;;;;;;;;;;18.80;99.90;;;;;;1775930;81;20229;-80
2021/08/03 14:28:44;;;;;;;;;;;18.80;99.90;;;;;;1774205;80;20210;-79
2021/08/03 14:31:11;;;;;;;;;;;18.80;99.90;;;;;;1775101;79;20182;-79
2021/08/03 14:33:38;;;;;;;;;;;18.80;99.90;;;;;;1776574;79;20456;-80
2021/08/03 14:36:05;;;;;;;;;;;18.90;99.90;;;;;;1777339;80;20155;-80
2021/08/03 14:38:31;;;;;;;;;;;18.90;99.90;;;;;;1743796;80;20208;-78
2021/08/03 14:40:58;;;;;;;;;;;18.90;99.90;;;;;;1745422;80;20193;-79
2021/08/03 14:43:25;;;;;;;;;;;19.00;99.90;;;;;;1746284;80;20450;-79
2021/08/03 14:45:52;;;;;;;;;;;19.10;99.90;;;;;;1771731;79;20450;-80
2021/08/03 14:48:19;;;;;;;;;;;19.60;99.90;;;;;;1769306;80;20162;-80
2021/08/03 14:50:45;;;;;;;;;;;19.90;99.90;;;;;;1770804;81;20213;-78
2021/08/03 14:53:12;;;;;;;;;;;20.20;99.90;;;;;;1770995;80;20483;-80
2021/08/03 14:55:39;;;;;;;;;;;20.30;99.90;;;;;;1776386;79;20237;-79
2021/08/03 14:58:06;;;;;;;;;;;20.10;99.90;;;;;;1770591;79;20224;-80
2021/08/03 15:00:33;;;;;;;;;;;19.80;99.90;;;;;;1782444;80;20162;-80
2021/08/03 15:03:00;;;;;;;;;;;19.70;99.90;;;;;;1783778;79;20547;-79
2021/08/03 15:05:26;;;;;;;;;;;19.60;99.90;;;;;;1777067;79;20219;-79
2021/08/03 15:07:53;;;;;;;;;;;19.60;99.90;;;;;;1746935;80;20529;-80
2021/08/03 15:10:20;;;;;;;;;;;19.60;99.90;;;;;;1753913;79;20224;-80
2021/08/03 15:12:47;;;;;;;;;;;19.50;99.90;;;;;;1766997;81;20186;-78
2021/08/03 15:15:15;;;;;;;;;;;19.40;99.90;;;;;;1763978;79;20532;-80
2021/08/03 15:17:42;;;;;;;;;;;19.40;99.90;;;;;;1749066;82;20201;-80
2021/08/03 15:20:09;;;;;;;;;;;19.30;99.90;;;;;;1769919;80;20339;-80
2021/08/03 15:22:36;;;;;;;;;;;19.30;99.90;;;;;;1763592;80;20250;-79
2021/08/03 15:25:03;;;;;;;;;;;19.30;99.90;;;;;;1776998;79;20198;-77
2021/08/03 15:27:30;;;;;;;;;;;19.30;99.90;;;;;;1776870;81;20226;-79
2021/08/03 15:29:56;;;;;;;;;;;19.20;99.90;;;;;;1775534;79;20210;-80
2021/08/03 15:32:23;;;;;;;;;;;19.20;99.90;;;;;;1768410;79;20185;-79
2021/08/03 15:34:50;;;;;;;;;;;19.20;99.90;;;;;;1763797;79;20173;-80
2021/08/03 15:37:17;;;;;;;;;;;19.10;99.90;;;;;;1771363;79;20177;-80
2021/08/03 15:39:43;;;;;;;;;;;19.10;99.90;;;;;;1768994;80;20161;-79
2021/08/03 15:42:10;;;;;;;;;;;19.10;99.90;;;;;;1765977;80;20213;-79